Omar, New York
Current Conditions -  °F | °C
As of 3:56 PM on Saturday 22 Nov 2014 (Local Time) from KART Reporting Station
Light Rain Light Rain  
Wind Chill: 30°   Ceiling: 2000
Heat Index: 38°   Visibility: 6mi
Dew Point: 28°   Wind: 14mph
Humidity: 68%   Direction: 190°S
Pressure: 29.97"   Gusts: 22mph
Location:  44.1911°N, 75.9494°W
Report Text: KART 222056Z AUTO 19012G19KT 6SM -RA OVC020 03/M02 A2997 RMK AO2 PK WND 16027/2013 SLP155 P0000 60000 T00331022 56020
Loading
Personal Weather Stations






























Interactive Weather Map New forecast layout! Learn more

10-Day Weather Forecast

Advertisements
Track Severe Weather on mobile